createdAt,value
2022-09-15T00:01:08.035Z,5.90
2022-09-15T00:03:35.763Z,13.45
2022-09-15T00:06:02.935Z,8.15
2022-09-15T00:08:30.836Z,8.25
2022-09-15T00:11:20.462Z,4.93
2022-09-15T00:13:47.865Z,9.65
2022-09-15T00:16:15.988Z,6.78
2022-09-15T00:18:45.093Z,7.60
2022-09-15T00:21:17.585Z,6.80
2022-09-15T00:23:45.359Z,7.20
2022-09-15T00:26:15.334Z,9.88
2022-09-15T00:28:42.563Z,9.02
2022-09-15T00:31:13.703Z,7.35
2022-09-15T00:33:41.168Z,9.13
2022-09-15T00:36:11.995Z,9.65
2022-09-15T00:38:39.255Z,10.52
2022-09-15T00:41:09.073Z,10.70
2022-09-15T00:43:54.690Z,10.55
2022-09-15T00:46:35.056Z,12.98
2022-09-15T00:49:13.835Z,14.00
2022-09-15T00:51:49.681Z,14.60
2022-09-15T00:55:01.109Z,12.02
2022-09-15T00:57:51.538Z,12.73
2022-09-15T01:00:22.022Z,10.85
2022-09-15T01:02:50.527Z,18.55
2022-09-15T01:05:22.926Z,14.45
2022-09-15T01:07:57.410Z,15.60
2022-09-15T01:10:29.329Z,14.05
2022-09-15T01:13:01.273Z,12.18
2022-09-15T01:16:03.246Z,14.48
2022-09-15T01:18:39.661Z,14.85
2022-09-15T01:21:35.388Z,12.65
2022-09-15T01:24:39.652Z,16.75
2022-09-15T01:27:37.728Z,14.80
2022-09-15T01:30:22.866Z,12.07
2022-09-15T01:33:09.353Z,15.95
2022-09-15T01:35:51.803Z,15.65
2022-09-15T01:38:23.998Z,13.13
2022-09-15T01:41:18.415Z,13.60
2022-09-15T01:44:09.941Z,13.45
2022-09-15T01:46:46.999Z,17.23
2022-09-15T01:49:20.867Z,14.27
2022-09-15T01:51:51.081Z,10.18
2022-09-15T01:54:24.076Z,13.90
2022-09-15T01:56:50.968Z,12.60
2022-09-15T01:59:18.003Z,12.57
2022-09-15T02:01:52.038Z,10.52
2022-09-15T02:04:38.728Z,11.07
2022-09-15T02:07:27.800Z,15.93
2022-09-15T02:10:11.939Z,15.63
2022-09-15T02:12:47.923Z,13.15
2022-09-15T02:15:23.937Z,13.10
2022-09-15T02:17:54.342Z,15.75
2022-09-15T02:20:49.500Z,13.38
2022-09-15T02:23:26.423Z,15.53
2022-09-15T02:25:59.903Z,12.65
2022-09-15T02:28:31.364Z,15.07
2022-09-15T02:30:59.788Z,13.85
2022-09-15T02:33:35.719Z,18.63
2022-09-15T02:36:04.479Z,13.48
2022-09-15T02:38:39.243Z,14.43
2022-09-15T02:41:06.331Z,12.35
2022-09-15T02:43:33.712Z,15.05
2022-09-15T02:46:00.701Z,12.90
2022-09-15T02:48:27.591Z,11.95
2022-09-15T02:50:54.363Z,11.52
2022-09-15T02:53:21.111Z,11.75
2022-09-15T02:55:48.021Z,13.35
2022-09-15T02:58:14.761Z,15.55
2022-09-15T03:00:42.731Z,13.88
2022-09-15T03:03:10.050Z,13.52
2022-09-15T03:05:36.842Z,16.58
2022-09-15T03:08:03.634Z,16.45
2022-09-15T03:10:30.656Z,12.60
2022-09-15T03:12:57.419Z,12.82
2022-09-15T03:15:26.417Z,11.25
2022-09-15T03:17:54.262Z,16.25
2022-09-15T03:20:30.533Z,13.18
2022-09-15T03:22:57.423Z,11.48
2022-09-15T03:25:27.003Z,12.20
2022-09-15T03:27:53.946Z,8.30
2022-09-15T03:30:20.844Z,16.05
2022-09-15T03:32:48.866Z,14.77
2022-09-15T03:35:15.803Z,17.48
2022-09-15T03:37:42.945Z,12.63
2022-09-15T03:40:10.885Z,13.00
2022-09-15T03:42:37.707Z,10.05
2022-09-15T03:45:05.143Z,11.68
2022-09-15T03:47:33.194Z,9.18
2022-09-15T03:50:00.174Z,11.98
2022-09-15T03:52:26.948Z,15.18
2022-09-15T03:54:53.663Z,13.40
2022-09-15T03:57:20.542Z,12.52
2022-09-15T03:59:47.361Z,12.90
2022-09-15T04:02:14.884Z,15.38
2022-09-15T04:04:41.708Z,12.18
2022-09-15T04:07:09.238Z,13.88
2022-09-15T04:09:37.435Z,17.13
2022-09-15T04:12:04.763Z,13.93
2022-09-15T04:14:32.019Z,16.42
2022-09-15T04:16:58.820Z,15.68
2022-09-15T04:19:25.836Z,13.57
2022-09-15T04:21:52.680Z,15.20
2022-09-15T04:24:19.611Z,16.88
2022-09-15T04:26:46.415Z,22.83
2022-09-15T04:29:16.677Z,16.20
2022-09-15T04:31:43.847Z,15.63
2022-09-15T04:34:11.105Z,11.95
2022-09-15T04:36:38.088Z,18.55
2022-09-15T04:39:06.716Z,12.40
2022-09-15T04:41:34.003Z,9.57
2022-09-15T04:44:01.259Z,19.33
2022-09-15T04:46:28.141Z,14.02
2022-09-15T04:48:56.462Z,15.70
2022-09-15T04:51:24.186Z,12.57
2022-09-15T04:53:52.232Z,12.80
2022-09-15T04:56:23.072Z,14.65
2022-09-15T04:59:03.971Z,12.68
2022-09-15T05:01:34.557Z,15.45
2022-09-15T05:04:04.234Z,13.30
2022-09-15T05:06:31.955Z,9.90
2022-09-15T05:08:58.922Z,12.60
2022-09-15T05:11:26.310Z,10.48
2022-09-15T05:13:53.935Z,14.73
2022-09-15T05:16:24.819Z,12.57
2022-09-15T05:18:54.486Z,11.40
2022-09-15T05:21:23.406Z,12.10
2022-09-15T05:23:54.273Z,11.18
2022-09-15T05:26:25.387Z,12.23
2022-09-15T05:28:52.898Z,12.88
2022-09-15T05:31:27.335Z,12.48
2022-09-15T05:33:55.366Z,12.80
2022-09-15T05:36:26.279Z,11.50
2022-09-15T05:38:56.614Z,10.68
2022-09-15T05:41:25.072Z,14.35
2022-09-15T05:43:54.274Z,9.85
2022-09-15T05:46:21.136Z,10.32
2022-09-15T05:48:48.282Z,12.88
2022-09-15T05:51:15.471Z,11.75
2022-09-15T05:53:42.410Z,11.45
2022-09-15T05:56:15.022Z,10.85
2022-09-15T05:58:44.870Z,10.13
2022-09-15T06:01:24.497Z,14.45
2022-09-15T06:03:51.999Z,10.32
2022-09-15T06:06:20.087Z,12.57
2022-09-15T06:08:54.175Z,14.50
2022-09-15T06:11:33.900Z,10.30
2022-09-15T06:14:03.409Z,12.98
2022-09-15T06:16:34.537Z,10.68
2022-09-15T06:19:01.887Z,10.98
2022-09-15T06:21:30.874Z,13.90
2022-09-15T06:24:04.640Z,12.48
2022-09-15T06:26:31.637Z,9.93
2022-09-15T06:29:01.787Z,11.23
2022-09-15T06:31:32.334Z,12.50
2022-09-15T06:34:00.758Z,12.70
2022-09-15T06:36:30.341Z,12.85
2022-09-15T06:38:58.655Z,9.63
2022-09-15T06:41:25.551Z,14.95
2022-09-15T06:43:53.335Z,10.57
2022-09-15T06:46:25.377Z,11.55
2022-09-15T06:48:53.680Z,10.25
2022-09-15T06:51:26.170Z,11.45
2022-09-15T06:53:54.315Z,9.98
2022-09-15T06:56:23.852Z,11.80
2022-09-15T06:58:51.105Z,11.43
2022-09-15T07:01:25.438Z,14.45
2022-09-15T07:03:53.759Z,12.30
2022-09-15T07:06:22.623Z,10.95
2022-09-15T07:08:50.508Z,9.38
2022-09-15T07:11:18.582Z,13.77
2022-09-15T07:13:46.099Z,9.05
2022-09-15T07:16:13.519Z,9.73
2022-09-15T07:18:43.192Z,11.27
2022-09-15T07:21:17.271Z,15.48
2022-09-15T07:23:45.094Z,13.55
2022-09-15T07:26:18.341Z,8.02
2022-09-15T07:29:00.460Z,11.07
2022-09-15T07:31:32.066Z,10.57
2022-09-15T07:34:01.186Z,13.10
2022-09-15T07:36:30.013Z,10.80
2022-09-15T07:38:56.932Z,10.10
2022-09-15T07:41:30.758Z,14.77
2022-09-15T07:44:00.335Z,10.65
2022-09-15T07:46:32.161Z,11.52
2022-09-15T07:49:00.774Z,13.15
2022-09-15T07:51:27.521Z,9.90
2022-09-15T07:53:55.315Z,12.07
2022-09-15T07:56:23.475Z,13.40
2022-09-15T07:58:51.351Z,14.45
2022-09-15T08:01:20.433Z,9.80
2022-09-15T08:03:50.255Z,7.93
2022-09-15T08:06:20.962Z,14.05
2022-09-15T08:08:47.829Z,11.65
2022-09-15T08:11:20.695Z,10.55
2022-09-15T08:13:49.843Z,12.30
2022-09-15T08:16:23.593Z,10.55
2022-09-15T08:18:53.243Z,10.60
2022-09-15T08:21:22.198Z,11.68
2022-09-15T08:23:58.710Z,12.90
2022-09-15T08:26:27.413Z,13.00
2022-09-15T08:28:54.503Z,11.88
2022-09-15T08:31:24.253Z,14.52
2022-09-15T08:33:53.599Z,13.18
2022-09-15T08:36:20.889Z,10.45
2022-09-15T08:38:47.986Z,12.05
2022-09-15T08:41:25.269Z,15.30
2022-09-15T08:44:04.137Z,16.67
2022-09-15T08:46:41.751Z,12.60
2022-09-15T08:49:35.598Z,18.27
2022-09-15T08:52:35.164Z,9.05
2022-09-15T08:55:14.143Z,14.15
2022-09-15T08:57:41.327Z,12.27
2022-09-15T09:00:15.573Z,11.70
2022-09-15T09:03:13.217Z,12.43
2022-09-15T09:06:18.402Z,12.63
2022-09-15T09:08:55.399Z,10.05
2022-09-15T09:12:18.938Z,14.40
2022-09-15T09:15:21.635Z,9.60
2022-09-15T09:18:07.499Z,8.77
2022-09-15T09:20:52.163Z,9.82
2022-09-15T09:23:25.246Z,11.20
2022-09-15T09:25:53.111Z,16.42
2022-09-15T09:28:37.462Z,11.38
2022-09-15T09:31:08.258Z,9.68
2022-09-15T09:33:47.795Z,11.57
2022-09-15T09:36:15.381Z,12.50
2022-09-15T09:38:45.883Z,11.98
2022-09-15T09:41:18.371Z,8.98
2022-09-15T09:43:48.074Z,10.38
2022-09-15T09:46:20.286Z,13.10
2022-09-15T09:49:05.912Z,8.55
2022-09-15T09:54:16.580Z,11.23
2022-09-15T09:56:45.545Z,7.68
2022-09-15T09:59:35.887Z,9.13
2022-09-15T10:02:11.895Z,13.15
2022-09-15T10:05:08.761Z,10.55
2022-09-15T10:07:44.025Z,12.20
2022-09-15T10:10:22.414Z,8.27
2022-09-15T10:12:51.257Z,10.10
2022-09-15T10:15:28.554Z,10.70
2022-09-15T10:17:57.272Z,9.52
2022-09-15T10:20:50.213Z,12.52
2022-09-15T10:23:17.509Z,7.75
2022-09-15T10:26:01.058Z,8.93
2022-09-15T10:28:28.460Z,10.05
2022-09-15T10:31:04.261Z,10.98
2022-09-15T10:33:37.365Z,9.57
2022-09-15T10:36:07.419Z,4.90
2022-09-15T10:38:44.360Z,7.70
2022-09-15T10:41:29.089Z,7.10
2022-09-15T10:44:14.055Z,5.23
2022-09-15T10:47:45.567Z,6.90
2022-09-15T10:50:29.492Z,10.98
2022-09-15T10:53:20.389Z,5.53
2022-09-15T10:56:30.989Z,8.57
2022-09-15T10:59:43.328Z,8.95
2022-09-15T11:02:40.700Z,11.07
2022-09-15T11:05:34.543Z,9.70
2022-09-15T11:08:19.370Z,5.38
2022-09-15T11:10:59.600Z,6.72
2022-09-15T11:13:44.208Z,8.23
2022-09-15T11:17:05.758Z,8.77
2022-09-15T11:20:13.284Z,8.18
2022-09-15T11:22:53.143Z,7.50
2022-09-15T11:25:32.319Z,8.05
2022-09-15T11:28:10.159Z,6.53
2022-09-15T11:30:47.731Z,10.80
2022-09-15T11:33:46.504Z,7.60
2022-09-15T11:36:23.395Z,6.75
2022-09-15T11:38:59.881Z,7.53
2022-09-15T11:41:36.877Z,4.90
2022-09-15T11:44:22.479Z,4.72
2022-09-15T11:47:23.031Z,7.53
2022-09-15T11:50:04.195Z,5.03
2022-09-15T11:52:39.762Z,6.20
2022-09-15T11:55:32.835Z,6.13
2022-09-15T11:58:23.659Z,5.43
2022-09-15T12:01:07.470Z,6.95
2022-09-15T12:03:40.577Z,5.10
2022-09-15T12:06:52.341Z,7.18
2022-09-15T12:09:21.558Z,9.35
2022-09-15T12:11:53.160Z,9.68
2022-09-15T12:14:48.456Z,10.63
2022-09-15T12:18:27.647Z,7.63
2022-09-15T12:21:39.289Z,4.35
2022-09-15T12:24:19.255Z,5.32
2022-09-15T12:26:46.839Z,7.30
2022-09-15T12:29:22.433Z,7.60
2022-09-15T12:32:22.441Z,4.72
2022-09-15T12:35:15.997Z,9.75
2022-09-15T12:37:59.265Z,9.73
2022-09-15T12:40:39.235Z,8.63
2022-09-15T12:43:12.922Z,10.38
2022-09-15T12:45:44.704Z,10.93
2022-09-15T12:48:18.871Z,6.32
2022-09-15T12:50:56.235Z,7.03
2022-09-15T12:53:31.451Z,7.95
2022-09-15T12:56:07.204Z,5.95
2022-09-15T12:58:45.832Z,9.13
2022-09-15T13:01:19.189Z,8.63
2022-09-15T13:03:46.371Z,11.10
2022-09-15T13:06:27.492Z,8.82
2022-09-15T13:09:19.334Z,4.10
2022-09-15T13:11:51.965Z,9.60
2022-09-15T13:14:37.588Z,9.32
2022-09-15T13:17:17.564Z,9.18
2022-09-15T13:19:48.151Z,6.25
2022-09-15T13:22:27.460Z,7.88
2022-09-15T13:25:02.352Z,6.05
2022-09-15T13:27:43.168Z,7.40
2022-09-15T13:31:02.214Z,6.80
2022-09-15T13:38:13.598Z,15.15
2022-09-15T13:40:52.748Z,6.97
2022-09-15T13:44:05.837Z,9.65
2022-09-15T13:46:35.319Z,12.15
2022-09-15T13:49:33.246Z,7.25
2022-09-15T13:52:49.066Z,7.43
2022-09-15T13:55:27.992Z,5.80
2022-09-15T14:00:54.128Z,7.28
2022-09-15T14:03:47.701Z,5.70
2022-09-15T14:06:23.676Z,7.18
2022-09-15T14:08:58.990Z,8.80
2022-09-15T14:11:31.123Z,7.60
2022-09-15T14:14:03.135Z,7.85
2022-09-15T14:16:36.489Z,5.03
2022-09-15T14:19:29.251Z,5.18
2022-09-15T14:21:58.470Z,6.57
2022-09-15T14:24:31.850Z,8.80
2022-09-15T14:27:03.553Z,10.05
2022-09-15T14:29:31.070Z,8.68
2022-09-15T14:32:01.890Z,10.32
2022-09-15T14:34:37.251Z,7.15
2022-09-15T14:37:27.895Z,6.82
2022-09-15T14:39:58.314Z,10.18
2022-09-15T14:42:51.504Z,8.27
2022-09-15T14:48:26.989Z,4.78
2022-09-15T14:51:10.389Z,7.38
2022-09-15T14:53:41.263Z,7.20
2022-09-15T14:56:20.155Z,5.35
2022-09-15T14:58:55.528Z,7.63
2022-09-15T15:01:34.966Z,7.40
2022-09-15T15:04:28.620Z,7.68
2022-09-15T15:07:20.120Z,9.52
2022-09-15T15:10:16.395Z,6.65
2022-09-15T15:12:51.583Z,4.93
2022-09-15T15:17:50.110Z,5.45
2022-09-15T15:20:28.318Z,4.47
2022-09-15T15:23:22.719Z,4.30
2022-09-15T15:25:49.829Z,4.40
2022-09-15T15:28:38.106Z,2.95
2022-09-15T15:31:17.171Z,3.25
2022-09-15T15:34:24.869Z,4.80
2022-09-15T15:36:51.657Z,3.25
2022-09-15T15:39:27.193Z,4.05
2022-09-15T15:42:06.372Z,4.47
2022-09-15T15:44:33.606Z,6.82
2022-09-15T15:47:04.271Z,3.75
2022-09-15T15:49:32.752Z,3.83
2022-09-15T15:52:01.860Z,5.38
2022-09-15T15:54:29.501Z,5.05
2022-09-15T15:57:21.591Z,5.00
2022-09-15T15:59:48.329Z,4.10
2022-09-15T16:02:15.128Z,4.30
2022-09-15T16:04:41.956Z,7.13
2022-09-15T16:07:17.685Z,5.70
2022-09-15T16:09:45.778Z,3.60
2022-09-15T16:12:12.625Z,5.35
2022-09-15T16:14:39.560Z,3.13
2022-09-15T16:17:06.688Z,5.15
2022-09-15T16:19:33.652Z,2.53
2022-09-15T16:22:02.296Z,4.15
2022-09-15T16:24:29.212Z,4.35
2022-09-15T16:26:56.198Z,4.50
2022-09-15T16:29:28.053Z,10.48
2022-09-15T16:31:55.370Z,7.07
2022-09-15T16:34:22.738Z,3.85
2022-09-15T16:36:49.907Z,5.53
2022-09-15T16:39:16.667Z,4.68
2022-09-15T16:41:43.443Z,6.57
2022-09-15T16:44:18.879Z,4.32
2022-09-15T16:46:46.092Z,3.15
2022-09-15T16:49:13.004Z,4.05
2022-09-15T16:51:39.800Z,5.88
2022-09-15T16:54:18.728Z,2.47
2022-09-15T16:56:46.301Z,7.07
2022-09-15T16:59:13.485Z,2.95
2022-09-15T17:01:40.528Z,4.53
2022-09-15T17:04:16.833Z,6.43
2022-09-15T17:06:43.600Z,2.85
2022-09-15T17:09:10.345Z,9.98
2022-09-15T17:11:37.184Z,4.60
2022-09-15T17:14:03.957Z,4.90
2022-09-15T17:16:30.811Z,3.83
2022-09-15T17:18:57.816Z,3.55
2022-09-15T17:21:24.634Z,2.67
2022-09-15T17:23:51.559Z,5.20
2022-09-15T17:26:24.642Z,4.93
2022-09-15T17:28:53.618Z,7.20
2022-09-15T17:31:24.131Z,1.65
2022-09-15T17:33:51.725Z,2.45
2022-09-15T17:36:18.828Z,2.25
2022-09-15T17:38:47.895Z,2.42
2022-09-15T17:41:22.980Z,3.10
2022-09-15T17:46:16.742Z,4.15
2022-09-15T17:48:43.611Z,3.20
2022-09-15T17:51:19.683Z,3.97
2022-09-15T17:53:48.088Z,2.03
2022-09-15T17:56:15.041Z,3.35
2022-09-15T17:58:42.741Z,3.25
2022-09-15T18:01:13.933Z,2.10
2022-09-15T18:03:44.467Z,3.83
2022-09-15T18:06:12.132Z,2.60
2022-09-15T18:08:38.920Z,5.43
2022-09-15T18:11:07.082Z,3.08
2022-09-15T18:13:34.246Z,3.75
2022-09-15T18:16:10.043Z,4.25
2022-09-15T18:18:38.069Z,6.30
2022-09-15T18:21:13.195Z,5.78
2022-09-15T18:26:09.357Z,3.97
2022-09-15T18:28:36.465Z,3.28
2022-09-15T18:31:03.317Z,3.55
2022-09-15T18:33:30.323Z,2.45
2022-09-15T18:35:59.145Z,7.68
2022-09-15T18:38:26.318Z,2.90
2022-09-15T18:40:56.745Z,5.03
2022-09-15T18:43:27.422Z,6.75
2022-09-15T18:46:01.643Z,4.63
2022-09-15T18:48:29.350Z,4.13
2022-09-15T18:50:56.406Z,3.63
2022-09-15T18:53:23.250Z,4.45
2022-09-15T18:55:50.329Z,2.95
2022-09-15T18:58:19.277Z,5.72
2022-09-15T19:00:46.322Z,3.10
2022-09-15T19:03:14.304Z,7.40
2022-09-15T19:05:42.074Z,8.10
2022-09-15T19:08:09.462Z,5.45
2022-09-15T19:10:38.432Z,3.30
2022-09-15T19:13:05.570Z,7.47
2022-09-15T19:15:34.711Z,7.50
2022-09-15T19:18:02.193Z,5.82
2022-09-15T19:20:29.351Z,5.57
2022-09-15T19:22:57.999Z,3.90
2022-09-15T19:25:25.016Z,9.65
2022-09-15T19:27:51.825Z,6.20
2022-09-15T19:30:18.905Z,5.93
2022-09-15T19:32:45.851Z,3.25
2022-09-15T19:35:12.813Z,5.80
2022-09-15T19:37:42.321Z,9.65
2022-09-15T19:40:13.577Z,6.18
2022-09-15T19:42:43.282Z,4.70
2022-09-15T19:45:12.654Z,7.63
2022-09-15T19:47:40.986Z,6.03
2022-09-15T19:50:11.992Z,4.72
2022-09-15T19:52:39.199Z,6.28
2022-09-15T19:55:09.785Z,5.50
2022-09-15T19:57:41.902Z,7.93
2022-09-15T20:00:13.312Z,7.03
2022-09-15T20:02:40.423Z,8.75
2022-09-15T20:05:08.903Z,6.43
2022-09-15T20:07:35.829Z,6.63
2022-09-15T20:10:03.138Z,7.25
2022-09-15T20:12:30.124Z,8.48
2022-09-15T20:14:57.017Z,6.55
2022-09-15T20:17:23.779Z,8.65
2022-09-15T20:19:50.543Z,7.60
2022-09-15T20:22:17.356Z,5.35
2022-09-15T20:24:44.450Z,4.20
2022-09-15T20:27:12.005Z,6.03
2022-09-15T20:29:39.148Z,8.50
2022-09-15T20:32:06.164Z,7.28
2022-09-15T20:34:32.963Z,3.85
2022-09-15T20:37:00.070Z,5.72
2022-09-15T20:39:26.939Z,5.97
2022-09-15T20:41:53.738Z,4.38
2022-09-15T20:44:20.754Z,5.47
2022-09-15T20:46:47.683Z,4.97
2022-09-15T20:49:14.979Z,6.22
2022-09-15T20:51:42.467Z,2.67
2022-09-15T20:54:11.260Z,3.03
2022-09-15T20:56:38.380Z,5.88
2022-09-15T20:59:06.590Z,4.82
2022-09-15T21:01:36.998Z,4.47
2022-09-15T21:04:08.809Z,7.07
2022-09-15T21:06:36.438Z,4.65
2022-09-15T21:09:04.707Z,5.85
2022-09-15T21:11:31.780Z,6.53
2022-09-15T21:13:59.021Z,9.15
2022-09-15T21:16:28.867Z,9.18
2022-09-15T21:18:57.954Z,7.00
2022-09-15T21:21:30.160Z,8.60
2022-09-15T21:24:06.587Z,6.55
2022-09-15T21:27:00.503Z,10.38
2022-09-15T21:29:28.629Z,8.00
2022-09-15T21:31:56.014Z,5.68
2022-09-15T21:34:23.030Z,5.60
2022-09-15T21:36:51.940Z,7.65
2022-09-15T21:39:18.840Z,4.40
2022-09-15T21:41:45.874Z,9.48
2022-09-15T21:44:12.737Z,4.55
2022-09-15T21:46:39.946Z,6.88
2022-09-15T21:49:06.699Z,8.18
2022-09-15T21:51:33.607Z,6.75
2022-09-15T21:54:00.779Z,7.97
2022-09-15T21:56:29.775Z,4.47
2022-09-15T21:58:56.629Z,8.25
2022-09-15T22:01:28.097Z,8.45
2022-09-15T22:04:04.282Z,6.65
2022-09-15T22:06:37.761Z,4.53
2022-09-15T22:09:16.960Z,4.40
2022-09-15T22:11:44.591Z,3.78
2022-09-15T22:14:13.256Z,6.63
2022-09-15T22:16:42.161Z,7.63
2022-09-15T22:19:11.749Z,6.22
2022-09-15T22:21:42.035Z,6.95
2022-09-15T22:24:13.094Z,7.63
2022-09-15T22:26:42.248Z,4.65
2022-09-15T22:29:09.469Z,4.65
2022-09-15T22:31:36.821Z,6.22
2022-09-15T22:34:05.104Z,7.30
2022-09-15T22:36:32.351Z,4.47
2022-09-15T22:39:05.495Z,5.07
2022-09-15T22:41:38.337Z,3.78
2022-09-15T22:44:07.425Z,4.28
2022-09-15T22:46:34.886Z,3.97
2022-09-15T22:49:02.105Z,4.30
2022-09-15T22:51:29.432Z,5.03
2022-09-15T22:53:57.585Z,6.47
2022-09-15T22:56:26.609Z,5.68
2022-09-15T22:58:55.315Z,4.97
2022-09-15T23:01:26.873Z,7.07
2022-09-15T23:03:57.308Z,3.60
2022-09-15T23:06:26.600Z,6.60
2022-09-15T23:08:56.473Z,8.80
2022-09-15T23:11:25.265Z,7.90
2022-09-15T23:13:53.439Z,5.70
2022-09-15T23:16:22.098Z,6.43
2022-09-15T23:18:49.495Z,5.60
2022-09-15T23:21:16.463Z,6.25
2022-09-15T23:23:48.219Z,5.88
2022-09-15T23:26:18.988Z,6.35
2022-09-15T23:28:46.031Z,9.15
2022-09-15T23:31:13.994Z,4.63
2022-09-15T23:33:41.453Z,7.25
2022-09-15T23:36:14.959Z,5.28
2022-09-15T23:38:44.530Z,4.00
2022-09-15T23:41:16.666Z,10.65
2022-09-15T23:43:43.816Z,6.00
2022-09-15T23:46:10.811Z,4.65
2022-09-15T23:48:37.871Z,4.25
2022-09-15T23:51:05.266Z,6.68
2022-09-15T23:53:32.346Z,4.10
2022-09-15T23:55:59.879Z,4.28
2022-09-15T23:58:27.044Z,7.03
